<?xml version="1.0" encoding="UTF-8" standalone="no" ?>
<gpx xmlns="http://www.topografix.com/GPX/1/1" xmlns:xsi="http://www.w3.org/2001/XMLSchema-instance" xsi:schemaLocation="http://www.topografix.com/GPX/1/1 http://www.topografix.com/GPX/1/1/gpx.xsd" version="1.1" creator="VisuGPX - https://www.visugpx.com">
  <metadata>
    <name>Randonnée du 21/06/2025 à 08:28</name>
  </metadata>
  <wpt lat="47.65882" lon="-2.76449">
    <ele>30</ele>
    <name><![CDATA[Point de passage 1]]></name>
    <type><![CDATA[GENERIC]]></type>
  </wpt>
  <wpt lat="47.63902" lon="-2.76199">
    <ele>3</ele>
    <name><![CDATA[Point de passage 2]]></name>
    <type><![CDATA[GENERIC]]></type>
  </wpt>
  <trk>
    <name><![CDATA[Randonnée du 21/06/2025 à 08:28]]></name>
    <trkseg>
      <trkpt lat="47.65882" lon="-2.76449">
        <ele>30</ele>
        <time>2025-06-21T06:29:00.000Z</time>
      </trkpt>
      <trkpt lat="47.65816" lon="-2.76425">
        <ele>28</ele>
        <time>2025-06-21T06:30:18.000Z</time>
      </trkpt>
      <trkpt lat="47.65796" lon="-2.76303">
        <ele>27</ele>
        <time>2025-06-21T06:31:55.000Z</time>
      </trkpt>
      <trkpt lat="47.65781" lon="-2.76151">
        <ele>25</ele>
        <time>2025-06-21T06:33:53.000Z</time>
      </trkpt>
      <trkpt lat="47.6577" lon="-2.76072">
        <ele>22</ele>
        <time>2025-06-21T06:34:55.000Z</time>
      </trkpt>
      <trkpt lat="47.65778" lon="-2.76015">
        <ele>20</ele>
        <time>2025-06-21T06:35:40.000Z</time>
      </trkpt>
      <trkpt lat="47.65767" lon="-2.75975">
        <ele>18</ele>
        <time>2025-06-21T06:36:14.000Z</time>
      </trkpt>
      <trkpt lat="47.65634" lon="-2.75969">
        <ele>10</ele>
        <time>2025-06-21T06:38:47.000Z</time>
      </trkpt>
      <trkpt lat="47.65482" lon="-2.75967">
        <ele>6</ele>
        <time>2025-06-21T06:41:40.000Z</time>
      </trkpt>
      <trkpt lat="47.65404" lon="-2.75956">
        <ele>3</ele>
        <time>2025-06-21T06:43:10.000Z</time>
      </trkpt>
      <trkpt lat="47.65351" lon="-2.75928">
        <ele>4</ele>
        <time>2025-06-21T06:44:24.000Z</time>
      </trkpt>
      <trkpt lat="47.65298" lon="-2.75895">
        <ele>4</ele>
        <time>2025-06-21T06:45:30.000Z</time>
      </trkpt>
      <trkpt lat="47.65207" lon="-2.75887">
        <ele>3</ele>
        <time>2025-06-21T06:47:15.000Z</time>
      </trkpt>
      <trkpt lat="47.65107" lon="-2.7586">
        <ele>3</ele>
        <time>2025-06-21T06:49:12.000Z</time>
      </trkpt>
      <trkpt lat="47.64784" lon="-2.75823">
        <ele>3</ele>
        <time>2025-06-21T06:55:22.000Z</time>
      </trkpt>
      <trkpt lat="47.64688" lon="-2.75855">
        <ele>3</ele>
        <time>2025-06-21T06:57:16.000Z</time>
      </trkpt>
      <trkpt lat="47.64422" lon="-2.75996">
        <ele>3</ele>
        <time>2025-06-21T07:02:39.000Z</time>
      </trkpt>
      <trkpt lat="47.64276" lon="-2.76074">
        <ele>3</ele>
        <time>2025-06-21T07:05:37.000Z</time>
      </trkpt>
      <trkpt lat="47.64131" lon="-2.76147">
        <ele>3</ele>
        <time>2025-06-21T07:08:32.000Z</time>
      </trkpt>
      <trkpt lat="47.64021" lon="-2.76183">
        <ele>3</ele>
        <time>2025-06-21T07:10:40.000Z</time>
      </trkpt>
      <trkpt lat="47.63902" lon="-2.76199">
        <ele>3</ele>
        <time>2025-06-21T07:12:56.000Z</time>
      </trkpt>
    </trkseg>
  </trk>
</gpx>